NCAR-RAP Real-Time Weather Data

Output produced by METARs form (20 February 2019  17:50 UTC)
found at http://weather.rap.ucar.edu/surface/
 
RJBE 201200Z 30010KT 9999 FEW025 SCT060 09/01 Q1020
RJBE 201100Z 33011KT 9999 FEW025 BKN060 11/03 Q1019
RJBE 201000Z 33010KT 9999 FEW020 SCT035 BKN050 12/06 Q1018
RJBE 200900Z 29011KT 9999 FEW020 SCT035 BKN050 13/07 Q1017
RJBE 200800Z 27011KT 9999 FEW020 SCT035 BKN050 12/08 Q1016
RJBE 200700Z 25016KT 9999 FEW020 SCT030 BKN060 13/08 Q1016
RJBE 200600Z 25014KT 9999 FEW025 SCT035 BKN060 13/09 Q1015
RJBE 200500Z 25011KT 9999 FEW025 SCT035 BKN060 13/09 Q1015
RJBE 200400Z 26012KT 9999 FEW025 SCT060 13/10 Q1015
RJBE 200300Z 26014KT 9999 FEW025 BKN060 13/11 Q1016
RJBE 200200Z 25008KT 9000 FEW020 SCT070 12/11 Q1016
RJBE 200100Z 25010KT 9000 FEW015 SCT030 BKN070 13/11 Q1016
RJBE 200000Z 26011KT 7000 FEW015 SCT035 BKN070 12/11 Q1016
RJBE 192300Z 24008KT 9000 FEW015 BKN050 12/11 Q1016
RJBE 192200Z 30006KT 9000 FEW015 BKN050 12/10 Q1015
RJBE 191200Z 08005KT 9999 FEW007 BKN010 11/10 Q1013
RJBE 191100Z 06008KT 9999 FEW007 BKN010 11/10 Q1013
RJBE 191000Z 05011KT 9999 FEW010 BKN015 11/09 Q1012
RJBE 190900Z 05011KT 9999 FEW015 SCT020 BKN050 11/10 Q1012
RJBE 190800Z 04015KT 9999 -RA FEW010 SCT020 BKN030 10/09 Q1012
RJBE 190700Z 06016KT 5000 -RA BR FEW005 BKN030 BKN060 10/09 Q1014
RJBE 190600Z 06015KT 5000 -RA BR FEW005 SCT025 BKN050 09/08 Q1014
RJBE 190500Z 05019KT 6000 -RA FEW005 BKN030 09/08 Q1015
RJBE 190400Z 06016KT 7000 -RA FEW005 SCT012 BKN035 09/07 Q1017
RJBE 190300Z 05014KT 9999 -RA FEW004 BKN012 BKN030 08/07 Q1019
RJBE 190200Z 05014KT 9000 -RA FEW007 SCT012 BKN025 08/06 Q1020
RJBE 190100Z 05018KT 9999 -RA FEW010 BKN030 BKN045 07/05 Q1021
RJBE 190000Z 06017KT 9999 RA FEW007 SCT020 BKN035 07/05 Q1022
RJBE 182300Z 06017KT 9999 -RA FEW008 BKN030 BKN050 07/05 Q1022
RJBE 182200Z 06017KT 9999 -RA FEW007 SCT040 BKN050 07/04 Q1023
RJBE 181200Z 36002KT CAVOK 07/02 Q1026
RJBE 181100Z 30005KT CAVOK 07/01 Q1026
RJBE 181000Z 32003KT 290V350 CAVOK 08/01 Q1025
RJBE 180900Z 30004KT CAVOK 08/01 Q1025
RJBE 180800Z 29004KT 230V310 CAVOK 10/M02 Q1024
RJBE 180700Z 20003KT CAVOK 10/00 Q1025
RJBE 180600Z 22002KT CAVOK 10/M01 Q1025